createdAt,value
2018-09-16T00:00:29.070Z,13.22
2018-09-16T00:02:32.138Z,13.20
2018-09-16T00:04:35.120Z,13.15
2018-09-16T00:06:39.526Z,13.18
2018-09-16T00:08:42.579Z,13.18
2018-09-16T00:10:45.681Z,13.21
2018-09-16T00:12:48.638Z,13.13
2018-09-16T00:14:51.622Z,13.00
2018-09-16T00:16:54.609Z,13.12
2018-09-16T00:18:57.650Z,13.12
2018-09-16T00:21:00.648Z,12.99
2018-09-16T00:23:03.801Z,12.93
2018-09-16T00:25:08.584Z,12.93
2018-09-16T00:27:12.239Z,12.88
2018-09-16T00:29:15.342Z,12.85
2018-09-16T00:31:18.448Z,12.80
2018-09-16T00:33:21.471Z,12.78
2018-09-16T00:35:24.557Z,12.76
2018-09-16T00:37:27.576Z,12.97
2018-09-16T00:39:30.551Z,13.28
2018-09-16T00:41:33.569Z,13.16
2018-09-16T00:43:37.902Z,12.85
2018-09-16T00:45:40.966Z,13.01
2018-09-16T00:47:43.971Z,12.97
2018-09-16T00:49:47.221Z,12.76
2018-09-16T00:51:50.209Z,12.64
2018-09-16T00:53:53.193Z,12.75
2018-09-16T00:55:56.200Z,12.70
2018-09-16T00:57:59.163Z,12.56
2018-09-16T01:00:02.309Z,12.55
2018-09-16T01:02:05.363Z,12.52
2018-09-16T01:04:09.532Z,12.46
2018-09-16T01:06:18.265Z,12.39
2018-09-16T01:08:21.483Z,12.22
2018-09-16T01:10:24.495Z,12.15
2018-09-16T01:12:27.487Z,12.30
2018-09-16T01:14:30.534Z,12.32
2018-09-16T01:16:33.553Z,12.65
2018-09-16T01:18:37.625Z,12.76
2018-09-16T01:20:40.638Z,12.44
2018-09-16T01:22:43.640Z,12.27
2018-09-16T01:24:46.673Z,12.09
2018-09-16T01:26:49.698Z,12.02
2018-09-16T01:28:52.723Z,11.99
2018-09-16T01:30:55.709Z,11.96
2018-09-16T01:32:58.712Z,11.94
2018-09-16T01:35:01.857Z,11.93
2018-09-16T01:37:10.722Z,12.39
2018-09-16T01:39:13.782Z,12.40
2018-09-16T01:41:16.939Z,12.47
2018-09-16T01:43:20.041Z,12.40
2018-09-16T01:45:23.105Z,12.38
2018-09-16T01:47:26.548Z,12.17
2018-09-16T01:49:29.593Z,11.81
2018-09-16T01:51:32.640Z,11.75
2018-09-16T01:53:37.833Z,11.72
2018-09-16T01:55:40.887Z,11.66
2018-09-16T01:57:43.946Z,11.65
2018-09-16T01:59:47.286Z,11.62
2018-09-16T02:01:50.328Z,11.61
2018-09-16T02:03:53.373Z,11.60
2018-09-16T02:05:56.452Z,11.49
2018-09-16T02:07:59.484Z,11.40
2018-09-16T02:10:02.827Z,11.32
2018-09-16T02:12:07.861Z,11.37
2018-09-16T02:14:11.009Z,11.39
2018-09-16T02:16:14.480Z,11.37
2018-09-16T02:18:17.518Z,11.40
2018-09-16T02:20:21.842Z,11.41
2018-09-16T02:22:24.928Z,11.42
2018-09-16T02:24:28.002Z,11.40
2018-09-16T02:26:31.079Z,11.38
2018-09-16T02:28:34.397Z,11.37
2018-09-16T02:30:39.092Z,11.41
2018-09-16T02:32:42.116Z,11.37
2018-09-16T02:34:45.424Z,11.33
2018-09-16T02:36:48.513Z,11.31
2018-09-16T02:38:51.599Z,11.37
2018-09-16T02:40:54.687Z,11.29
2018-09-16T02:42:57.763Z,11.18
2018-09-16T02:45:00.851Z,11.14
2018-09-16T02:47:04.043Z,11.27
2018-09-16T02:49:08.164Z,11.23
2018-09-16T02:51:11.285Z,11.17
2018-09-16T02:53:14.316Z,11.12
2018-09-16T02:55:17.355Z,11.06
2018-09-16T02:57:20.594Z,11.00
2018-09-16T02:59:23.716Z,10.83
2018-09-16T03:01:26.812Z,10.91
2018-09-16T03:03:30.210Z,10.92
2018-09-16T03:05:38.869Z,10.92
2018-09-16T03:07:41.945Z,10.93
2018-09-16T03:09:45.066Z,10.84
2018-09-16T03:11:48.232Z,10.84
2018-09-16T03:13:51.235Z,10.86
2018-09-16T03:15:54.319Z,10.88
2018-09-16T03:17:57.346Z,10.83
2018-09-16T03:20:00.495Z,10.95
2018-09-16T03:22:03.751Z,10.80
2018-09-16T03:24:08.077Z,10.74
2018-09-16T03:26:11.169Z,10.75
2018-09-16T03:28:14.199Z,10.74
2018-09-16T03:30:17.271Z,10.70
2018-09-16T03:32:20.395Z,10.68
2018-09-16T03:34:23.358Z,10.64
2018-09-16T03:36:26.349Z,10.61
2018-09-16T03:38:29.488Z,10.64
2018-09-16T03:40:32.474Z,10.65
2018-09-16T03:42:35.441Z,10.59
2018-09-16T03:44:40.226Z,10.54
2018-09-16T03:46:43.333Z,10.51
2018-09-16T03:48:46.335Z,10.49
2018-09-16T03:50:49.582Z,10.45
2018-09-16T03:52:52.644Z,10.44
2018-09-16T03:54:55.594Z,10.41
2018-09-16T03:56:58.609Z,10.40
2018-09-16T03:59:01.723Z,10.31
2018-09-16T04:01:04.707Z,10.32
2018-09-16T04:03:09.151Z,10.33
2018-09-16T04:05:13.261Z,10.31
2018-09-16T04:07:16.360Z,10.30
2018-09-16T04:09:19.405Z,10.30
2018-09-16T04:11:22.394Z,10.26
2018-09-16T04:13:25.450Z,10.20
2018-09-16T04:15:28.448Z,10.16
2018-09-16T04:17:32.222Z,10.12
2018-09-16T04:19:35.208Z,10.16
2018-09-16T04:21:39.526Z,10.17
2018-09-16T04:23:47.481Z,10.27
2018-09-16T04:25:50.482Z,10.14
2018-09-16T04:27:53.433Z,10.16
2018-09-16T04:29:56.473Z,10.12
2018-09-16T04:31:59.484Z,10.07
2018-09-16T04:34:02.840Z,10.08
2018-09-16T04:36:05.838Z,10.07
2018-09-16T04:38:10.063Z,10.09
2018-09-16T04:40:13.116Z,10.17
2018-09-16T04:42:16.147Z,10.10
2018-09-16T04:44:19.202Z,10.06
2018-09-16T04:46:22.222Z,10.00
2018-09-16T04:48:25.235Z,10.11
2018-09-16T04:50:28.264Z,10.00
2018-09-16T04:52:31.279Z,10.00
2018-09-16T04:54:34.263Z,9.98
2018-09-16T04:56:39.235Z,9.95
2018-09-16T04:58:42.326Z,9.96
2018-09-16T05:00:45.314Z,9.89
2018-09-16T05:02:48.724Z,9.93
2018-09-16T05:04:51.762Z,9.92
2018-09-16T05:06:54.725Z,9.90
2018-09-16T05:08:57.688Z,9.88
2018-09-16T05:11:00.694Z,9.84
2018-09-16T05:13:03.775Z,9.81
2018-09-16T05:15:08.933Z,9.78
2018-09-16T05:17:11.902Z,9.78
2018-09-16T05:19:14.803Z,9.76
2018-09-16T05:21:18.047Z,9.70
2018-09-16T05:23:21.043Z,9.66
2018-09-16T05:25:24.067Z,9.63
2018-09-16T05:27:27.058Z,9.57
2018-09-16T05:29:30.029Z,9.59
2018-09-16T05:31:33.108Z,9.67
2018-09-16T05:33:37.739Z,9.60
2018-09-16T05:35:40.734Z,9.63
2018-09-16T05:37:43.770Z,9.69
2018-09-16T05:39:46.826Z,9.73
2018-09-16T05:41:49.775Z,9.75
2018-09-16T05:43:52.769Z,9.82
2018-09-16T05:45:55.844Z,9.85
2018-09-16T05:47:58.948Z,9.90
2018-09-16T05:50:02.079Z,9.98
2018-09-16T05:52:05.106Z,10.03
2018-09-16T05:54:09.836Z,10.10
2018-09-16T05:56:12.909Z,10.21
2018-09-16T05:58:15.895Z,10.26
2018-09-16T06:00:20.058Z,10.34
2018-09-16T06:02:23.118Z,10.35
2018-09-16T06:04:26.103Z,10.41
2018-09-16T06:06:29.215Z,10.52
2018-09-16T06:08:32.195Z,10.70
2018-09-16T06:10:35.190Z,10.74
2018-09-16T06:12:39.349Z,10.77
2018-09-16T06:14:42.322Z,10.84
2018-09-16T06:16:45.387Z,11.12
2018-09-16T06:18:48.442Z,11.09
2018-09-16T06:20:51.560Z,11.17
2018-09-16T06:22:54.685Z,11.31
2018-09-16T06:24:57.795Z,11.47
2018-09-16T06:27:00.867Z,11.64
2018-09-16T06:29:03.911Z,11.68
2018-09-16T06:31:08.316Z,11.76
2018-09-16T06:33:11.338Z,11.79
2018-09-16T06:35:14.535Z,11.90
2018-09-16T06:37:17.910Z,12.21
2018-09-16T06:39:21.567Z,12.35
2018-09-16T06:41:25.215Z,12.34
2018-09-16T06:43:28.262Z,12.51
2018-09-16T06:45:32.356Z,12.66
2018-09-16T06:47:35.555Z,12.79
2018-09-16T06:49:39.879Z,13.01
2018-09-16T06:51:43.942Z,13.07
2018-09-16T06:58:19.079Z,13.72
2018-09-16T07:00:22.690Z,13.75
2018-09-16T07:02:27.029Z,13.97
2018-09-16T07:04:30.941Z,14.06
2018-09-16T07:06:35.742Z,14.12
2018-09-16T07:08:39.164Z,14.49
2018-09-16T07:10:42.267Z,14.95
2018-09-16T07:12:45.408Z,15.19
2018-09-16T07:14:48.563Z,15.35
2018-09-16T07:16:51.669Z,15.55
2018-09-16T07:18:54.786Z,15.67
2018-09-16T07:20:57.940Z,15.95
2018-09-16T07:23:01.052Z,16.07
2018-09-16T07:25:04.411Z,16.35
2018-09-16T07:27:08.835Z,16.53
2018-09-16T07:29:12.060Z,16.62
2018-09-16T07:31:15.243Z,17.04
2018-09-16T07:33:18.486Z,17.13
2018-09-16T07:35:21.648Z,17.33
2018-09-16T07:37:24.855Z,17.54
2018-09-16T07:39:28.015Z,17.64
2018-09-16T07:41:31.142Z,17.88
2018-09-16T07:43:34.366Z,18.03
2018-09-16T07:45:38.902Z,17.95
2018-09-16T07:47:42.342Z,18.15
2018-09-16T07:49:45.479Z,18.46
2018-09-16T07:51:48.631Z,18.72
2018-09-16T07:53:52.173Z,18.63
2018-09-16T07:55:55.318Z,18.55
2018-09-16T07:57:58.407Z,18.91
2018-09-16T08:00:01.621Z,19.08
2018-09-16T08:02:04.685Z,19.41
2018-09-16T08:04:09.154Z,19.61
2018-09-16T08:06:12.783Z,19.61
2018-09-16T08:08:15.876Z,19.69
2018-09-16T08:10:19.011Z,20.10
2018-09-16T08:12:22.211Z,20.07
2018-09-16T08:14:25.489Z,20.26
2018-09-16T08:16:29.435Z,20.48
2018-09-16T08:18:32.898Z,20.56
2018-09-16T08:20:35.931Z,20.68
2018-09-16T08:22:40.675Z,21.14
2018-09-16T08:24:43.721Z,21.25
2018-09-16T08:26:46.751Z,20.85
2018-09-16T08:28:49.804Z,21.03
2018-09-16T08:30:52.985Z,20.50
2018-09-16T08:32:56.219Z,20.73
2018-09-16T08:34:59.418Z,21.03
2018-09-16T08:37:02.408Z,21.17
2018-09-16T08:39:09.207Z,21.24
2018-09-16T08:41:12.314Z,21.70
2018-09-16T08:43:15.366Z,21.84
2018-09-16T08:45:18.806Z,21.54
2018-09-16T08:47:21.887Z,21.77
2018-09-16T08:49:24.963Z,21.56
2018-09-16T08:51:28.175Z,21.79
2018-09-16T08:53:31.172Z,21.73
2018-09-16T08:55:34.939Z,22.13
2018-09-16T08:57:39.599Z,22.35
2018-09-16T08:59:42.824Z,22.17
2018-09-16T09:01:46.235Z,22.51
2018-09-16T09:03:49.427Z,22.80
2018-09-16T09:05:52.475Z,22.85
2018-09-16T09:07:55.552Z,23.18
2018-09-16T09:09:59.181Z,23.45
2018-09-16T09:12:02.156Z,22.64
2018-09-16T09:14:05.431Z,22.61
2018-09-16T09:16:09.870Z,22.86
2018-09-16T09:18:12.953Z,23.15
2018-09-16T09:20:16.139Z,23.44
2018-09-16T09:22:19.196Z,22.73
2018-09-16T09:24:22.464Z,22.81
2018-09-16T09:26:25.503Z,22.96
2018-09-16T09:28:28.567Z,22.96
2018-09-16T09:30:31.702Z,23.26
2018-09-16T09:32:34.787Z,22.67
2018-09-16T09:34:39.411Z,22.84
2018-09-16T09:36:42.719Z,22.70
2018-09-16T09:38:45.802Z,22.79
2018-09-16T09:40:48.883Z,22.59
2018-09-16T09:42:52.047Z,22.32
2018-09-16T09:44:55.139Z,22.20
2018-09-16T09:46:58.357Z,22.41
2018-09-16T09:49:01.721Z,22.80
2018-09-16T09:51:04.878Z,22.91
2018-09-16T09:53:09.839Z,23.18
2018-09-16T09:55:12.995Z,23.40
2018-09-16T09:57:16.061Z,23.38
2018-09-16T09:59:19.108Z,23.42
2018-09-16T10:01:22.196Z,23.86
2018-09-16T10:03:25.338Z,24.11
2018-09-16T10:05:28.535Z,24.19
2018-09-16T10:07:31.650Z,23.99
2018-09-16T10:09:34.889Z,23.93
2018-09-16T10:11:39.475Z,24.30
2018-09-16T10:13:42.535Z,24.39
2018-09-16T10:15:45.658Z,23.51
2018-09-16T10:17:48.747Z,23.63
2018-09-16T10:19:51.902Z,23.75
2018-09-16T10:21:55.100Z,23.31
2018-09-16T10:23:58.360Z,22.85
2018-09-16T10:26:01.421Z,23.29
2018-09-16T10:28:04.883Z,23.46
2018-09-16T10:30:09.832Z,23.08
2018-09-16T10:32:13.059Z,23.47
2018-09-16T10:34:16.354Z,23.84
2018-09-16T10:36:19.515Z,24.03
2018-09-16T10:38:22.783Z,23.93
2018-09-16T10:40:25.835Z,23.94
2018-09-16T10:42:28.984Z,23.48
2018-09-16T10:44:32.030Z,23.52
2018-09-16T10:46:35.108Z,23.08
2018-09-16T10:48:40.493Z,23.06
2018-09-16T10:50:43.722Z,23.28
2018-09-16T10:52:46.834Z,23.07
2018-09-16T10:54:49.867Z,22.88
2018-09-16T10:56:52.977Z,23.16
2018-09-16T10:58:56.148Z,23.76
2018-09-16T11:00:59.246Z,24.07
2018-09-16T11:03:02.387Z,23.84
2018-09-16T11:05:05.722Z,24.00
2018-09-16T11:07:09.991Z,23.83
2018-09-16T11:09:13.208Z,23.69
2018-09-16T11:11:16.438Z,23.63
2018-09-16T11:13:19.499Z,23.87
2018-09-16T11:15:22.805Z,24.52
2018-09-16T11:17:25.948Z,24.70
2018-09-16T11:19:29.951Z,24.77
2018-09-16T11:21:33.339Z,25.03
2018-09-16T11:23:37.712Z,24.51
2018-09-16T11:25:40.774Z,25.25
2018-09-16T11:27:44.265Z,25.05
2018-09-16T11:29:47.466Z,25.07
2018-09-16T11:31:50.636Z,25.28
2018-09-16T11:33:53.807Z,25.52
2018-09-16T11:35:56.960Z,25.97
2018-09-16T11:38:00.211Z,25.72
2018-09-16T11:40:03.394Z,25.86
2018-09-16T11:42:08.063Z,26.10
2018-09-16T11:44:11.148Z,26.14
2018-09-16T11:46:14.214Z,25.50
2018-09-16T11:48:17.407Z,25.18
2018-09-16T11:50:20.602Z,25.35
2018-09-16T11:52:24.971Z,25.41
2018-09-16T11:54:28.020Z,25.70
2018-09-16T11:56:31.902Z,25.80
2018-09-16T11:58:35.118Z,26.12
2018-09-16T12:00:39.955Z,26.27
2018-09-16T12:02:43.215Z,26.98
2018-09-16T12:04:46.346Z,26.94
2018-09-16T12:06:49.510Z,26.98
2018-09-16T12:08:52.648Z,27.24
2018-09-16T12:10:55.734Z,26.25
2018-09-16T12:12:59.051Z,26.22
2018-09-16T12:15:02.120Z,26.30
2018-09-16T12:17:05.189Z,26.03
2018-09-16T12:19:10.511Z,25.95
2018-09-16T12:21:13.593Z,26.70
2018-09-16T12:23:16.600Z,27.05
2018-09-16T12:25:20.071Z,27.44
2018-09-16T12:27:23.232Z,27.81
2018-09-16T12:29:26.375Z,28.03
2018-09-16T12:31:29.934Z,27.20
2018-09-16T12:33:32.987Z,27.96
2018-09-16T12:35:36.192Z,27.63
2018-09-16T12:37:40.199Z,27.57
2018-09-16T12:39:43.285Z,28.07
2018-09-16T12:41:46.427Z,28.01
2018-09-16T12:43:49.463Z,28.50
2018-09-16T12:45:52.669Z,28.54
2018-09-16T12:47:55.753Z,28.53
2018-09-16T12:49:58.980Z,28.23
2018-09-16T12:52:03.115Z,27.82
2018-09-16T12:54:06.191Z,27.60
2018-09-16T12:56:09.242Z,27.45
2018-09-16T12:58:12.432Z,27.43
2018-09-16T13:00:15.682Z,26.40
2018-09-16T13:02:18.911Z,26.53
2018-09-16T13:04:22.127Z,26.50
2018-09-16T13:06:25.156Z,25.93
2018-09-16T13:08:28.586Z,26.58
2018-09-16T13:10:31.815Z,26.53
2018-09-16T13:12:35.010Z,26.74
2018-09-16T13:14:39.706Z,26.84
2018-09-16T13:16:42.895Z,25.93
2018-09-16T13:18:46.096Z,25.65
2018-09-16T13:20:49.133Z,25.89
2018-09-16T13:22:52.369Z,26.42
2018-09-16T13:24:55.410Z,26.67
2018-09-16T13:26:58.597Z,26.50
2018-09-16T13:29:01.698Z,26.69
2018-09-16T13:31:04.793Z,25.55
2018-09-16T13:33:09.546Z,25.90
2018-09-16T13:35:12.975Z,25.91
2018-09-16T13:37:16.026Z,25.75
2018-09-16T13:39:19.199Z,25.79
2018-09-16T13:41:22.446Z,26.10
2018-09-16T13:43:25.706Z,26.61
2018-09-16T13:45:28.822Z,26.79
2018-09-16T13:47:31.961Z,27.39
2018-09-16T13:49:35.037Z,27.62
2018-09-16T13:51:39.883Z,27.87
2018-09-16T13:53:42.976Z,27.77
2018-09-16T13:55:46.035Z,28.02
2018-09-16T13:57:49.016Z,27.70
2018-09-16T13:59:52.008Z,26.98
2018-09-16T14:01:55.125Z,26.71
2018-09-16T14:03:58.139Z,26.61
2018-09-16T14:06:01.072Z,26.63
2018-09-16T14:08:04.014Z,26.02
2018-09-16T14:10:08.615Z,25.72
2018-09-16T14:12:11.782Z,25.92
2018-09-16T14:14:14.865Z,26.71
2018-09-16T14:16:17.930Z,26.65
2018-09-16T14:18:21.018Z,26.93
2018-09-16T14:20:24.374Z,26.94
2018-09-16T14:22:27.557Z,27.44
2018-09-16T14:24:30.494Z,27.32
2018-09-16T14:26:33.494Z,27.40
2018-09-16T14:28:38.446Z,27.50
2018-09-16T14:30:41.471Z,27.17
2018-09-16T14:32:44.686Z,26.88
2018-09-16T14:34:47.719Z,26.61
2018-09-16T14:36:50.809Z,25.81
2018-09-16T14:38:54.284Z,26.05
2018-09-16T14:40:57.286Z,26.29
2018-09-16T14:43:00.293Z,25.90
2018-09-16T14:45:03.424Z,25.10
2018-09-16T14:47:08.451Z,25.68
2018-09-16T14:49:11.408Z,26.33
2018-09-16T14:51:14.457Z,26.31
2018-09-16T14:53:17.450Z,26.46
2018-09-16T14:55:20.393Z,26.25
2018-09-16T14:57:23.427Z,26.51
2018-09-16T14:59:26.768Z,26.77
2018-09-16T15:01:29.757Z,26.43
2018-09-16T15:03:32.920Z,25.87
2018-09-16T15:05:35.910Z,26.12
2018-09-16T15:07:40.226Z,26.48
2018-09-16T15:09:43.475Z,26.68
2018-09-16T15:11:46.627Z,27.14
2018-09-16T15:13:49.592Z,26.99
2018-09-16T15:15:52.742Z,27.55
2018-09-16T15:17:55.776Z,27.70
2018-09-16T15:19:58.768Z,28.28
2018-09-16T15:22:01.764Z,28.00
2018-09-16T15:24:04.844Z,27.91
2018-09-16T15:26:08.520Z,27.67
2018-09-16T15:28:11.603Z,27.31
2018-09-16T15:30:14.708Z,27.14
2018-09-16T15:32:17.767Z,26.71
2018-09-16T15:34:20.899Z,26.69
2018-09-16T15:36:23.927Z,26.70
2018-09-16T15:38:26.937Z,25.93
2018-09-16T15:40:29.991Z,25.78
2018-09-16T15:42:33.014Z,25.66
2018-09-16T15:44:35.975Z,25.61
2018-09-16T15:46:41.004Z,25.34
2018-09-16T15:48:44.342Z,25.72
2018-09-16T15:50:47.395Z,25.14
2018-09-16T15:52:50.398Z,25.19
2018-09-16T15:54:53.701Z,25.41
2018-09-16T15:56:56.756Z,25.42
2018-09-16T15:58:59.862Z,25.38
2018-09-16T16:01:03.262Z,25.48
2018-09-16T16:03:06.754Z,25.37
2018-09-16T16:05:09.846Z,25.40
2018-09-16T16:07:12.894Z,25.23
2018-09-16T16:09:15.911Z,25.29
2018-09-16T16:11:18.972Z,25.32
2018-09-16T16:13:22.032Z,25.38
2018-09-16T16:15:25.035Z,25.10
2018-09-16T16:17:28.067Z,25.09
2018-09-16T16:19:31.258Z,24.91
2018-09-16T16:21:34.387Z,24.35
2018-09-16T16:23:38.867Z,24.66
2018-09-16T16:25:41.922Z,24.71
2018-09-16T16:27:45.096Z,24.48
2018-09-16T16:29:48.194Z,24.40
2018-09-16T16:31:51.678Z,24.36
2018-09-16T16:33:54.745Z,24.33
2018-09-16T16:35:57.911Z,24.30
2018-09-16T16:38:01.088Z,24.23
2018-09-16T16:40:04.131Z,24.13
2018-09-16T16:42:09.064Z,24.12
2018-09-16T16:44:12.194Z,23.97
2018-09-16T16:46:15.248Z,23.86
2018-09-16T16:48:18.311Z,23.77
2018-09-16T16:50:21.439Z,23.70
2018-09-16T16:52:24.544Z,23.64
2018-09-16T16:54:27.675Z,23.58
2018-09-16T16:56:30.686Z,23.44
2018-09-16T16:58:33.783Z,23.32
2018-09-16T17:00:38.292Z,23.25
2018-09-16T17:02:41.412Z,23.20
2018-09-16T17:04:44.578Z,23.11
2018-09-16T17:06:47.798Z,23.11
2018-09-16T17:08:50.906Z,23.03
2018-09-16T17:10:54.049Z,22.92
2018-09-16T17:12:57.248Z,22.96
2018-09-16T17:15:00.477Z,22.77
2018-09-16T17:17:03.614Z,22.61
2018-09-16T17:19:08.741Z,22.46
2018-09-16T17:21:11.990Z,22.39
2018-09-16T17:23:15.378Z,22.41
2018-09-16T17:25:18.613Z,22.27
2018-09-16T17:27:21.828Z,22.12
2018-09-16T17:29:24.891Z,21.98
2018-09-16T17:31:28.358Z,21.84
2018-09-16T17:33:31.582Z,21.91
2018-09-16T17:35:34.766Z,21.72
2018-09-16T17:37:39.074Z,21.62
2018-09-16T17:39:42.391Z,21.46
2018-09-16T17:41:46.079Z,21.31
2018-09-16T17:43:49.086Z,21.29
2018-09-16T17:45:52.581Z,21.18
2018-09-16T17:47:55.714Z,21.16
2018-09-16T17:49:58.901Z,21.09
2018-09-16T17:52:02.007Z,20.97
2018-09-16T17:54:05.062Z,20.81
2018-09-16T17:56:08.629Z,20.67
2018-09-16T17:58:11.651Z,20.64
2018-09-16T18:00:14.759Z,20.84
2018-09-16T18:02:17.961Z,20.80
2018-09-16T18:04:21.215Z,21.22
2018-09-16T18:06:24.303Z,20.91
2018-09-16T18:08:33.797Z,20.58
2018-09-16T18:10:38.279Z,20.30
2018-09-16T18:12:41.396Z,20.16
2018-09-16T18:14:44.487Z,20.06
2018-09-16T18:16:47.728Z,20.02
2018-09-16T18:18:50.702Z,19.88
2018-09-16T18:20:53.887Z,19.68
2018-09-16T18:22:56.979Z,19.78
2018-09-16T18:25:00.086Z,19.76
2018-09-16T18:27:03.155Z,19.62
2018-09-16T18:29:08.494Z,19.58
2018-09-16T18:31:13.738Z,19.55
2018-09-16T18:33:16.974Z,19.49
2018-09-16T18:35:20.123Z,19.38
2018-09-16T18:37:23.331Z,19.34
2018-09-16T18:39:26.729Z,19.38
2018-09-16T18:41:29.816Z,19.39
2018-09-16T18:43:32.953Z,19.65
2018-09-16T18:45:36.088Z,19.66
2018-09-16T18:47:40.625Z,19.40
2018-09-16T18:49:43.746Z,19.15
2018-09-16T18:51:47.324Z,18.87
2018-09-16T18:53:50.808Z,18.77
2018-09-16T18:55:53.847Z,18.65
2018-09-16T18:57:57.070Z,18.58
2018-09-16T19:00:01.065Z,18.54
2018-09-16T19:02:04.230Z,18.49
2018-09-16T19:04:09.647Z,18.52
2018-09-16T19:06:12.743Z,18.72
2018-09-16T19:08:15.881Z,18.74
2018-09-16T19:10:19.246Z,18.64
2018-09-16T19:12:22.459Z,18.37
2018-09-16T19:14:25.740Z,18.15
2018-09-16T19:16:28.755Z,18.04
2018-09-16T19:18:31.758Z,17.93
2018-09-16T19:20:34.751Z,17.90
2018-09-16T19:22:38.995Z,17.81
2018-09-16T19:24:42.056Z,17.77
2018-09-16T19:26:45.226Z,17.74
2018-09-16T19:28:48.787Z,17.77
2018-09-16T19:30:51.715Z,17.67
2018-09-16T19:32:54.746Z,17.53
2018-09-16T19:34:57.834Z,17.43
2018-09-16T19:37:00.850Z,17.44
2018-09-16T19:39:08.338Z,17.37
2018-09-16T19:41:11.339Z,17.75
2018-09-16T19:43:14.425Z,17.74
2018-09-16T19:45:17.820Z,17.52
2018-09-16T19:47:21.337Z,17.34
2018-09-16T19:49:24.749Z,17.18
2018-09-16T19:51:28.166Z,17.12
2018-09-16T19:53:31.292Z,17.10
2018-09-16T19:55:35.063Z,17.07
2018-09-16T19:57:39.526Z,17.08
2018-09-16T19:59:42.619Z,17.08
2018-09-16T20:01:45.979Z,17.05
2018-09-16T20:03:49.036Z,16.94
2018-09-16T20:05:52.091Z,16.89
2018-09-16T20:07:55.282Z,16.85
2018-09-16T20:09:58.515Z,16.74
2018-09-16T20:12:01.673Z,16.82
2018-09-16T20:14:05.139Z,16.84
2018-09-16T20:16:10.176Z,16.62
2018-09-16T20:18:13.237Z,16.60
2018-09-16T20:20:16.546Z,16.71
2018-09-16T20:22:19.659Z,16.72
2018-09-16T20:24:22.929Z,16.57
2018-09-16T20:26:26.701Z,16.49
2018-09-16T20:28:29.877Z,16.38
2018-09-16T20:30:32.923Z,16.31
2018-09-16T20:32:37.629Z,16.28
2018-09-16T20:34:41.436Z,16.19
2018-09-16T20:36:45.266Z,16.16
2018-09-16T20:38:48.303Z,16.21
2018-09-16T20:40:51.337Z,16.13
2018-09-16T20:42:54.426Z,16.06
2018-09-16T20:44:57.560Z,16.04
2018-09-16T20:47:00.598Z,15.97
2018-09-16T20:49:04.030Z,15.98
2018-09-16T20:51:09.020Z,15.93
2018-09-16T20:53:11.974Z,15.87
2018-09-16T20:55:15.026Z,15.95
2018-09-16T20:57:18.010Z,16.04
2018-09-16T20:59:21.030Z,15.97
2018-09-16T21:01:24.518Z,15.84
2018-09-16T21:03:27.580Z,15.88
2018-09-16T21:05:30.551Z,15.48
2018-09-16T21:07:33.622Z,15.48
2018-09-16T21:09:38.102Z,15.39
2018-09-16T21:11:41.590Z,15.29
2018-09-16T21:13:45.212Z,15.25
2018-09-16T21:15:48.322Z,15.27
2018-09-16T21:17:51.315Z,15.49
2018-09-16T21:19:54.469Z,15.63
2018-09-16T21:21:57.473Z,15.51
2018-09-16T21:24:00.704Z,15.54
2018-09-16T21:26:03.817Z,15.54
2018-09-16T21:28:08.319Z,15.48
2018-09-16T21:30:11.267Z,15.44
2018-09-16T21:32:14.323Z,15.32
2018-09-16T21:34:17.265Z,15.44
2018-09-16T21:36:20.311Z,15.38
2018-09-16T21:38:23.272Z,15.27
2018-09-16T21:40:26.306Z,15.25
2018-09-16T21:42:29.259Z,15.22
2018-09-16T21:44:32.238Z,15.19
2018-09-16T21:46:35.248Z,15.18
2018-09-16T21:48:39.988Z,15.10
2018-09-16T21:50:42.980Z,15.02
2018-09-16T21:52:46.659Z,14.86
2018-09-16T21:54:49.691Z,14.83
2018-09-16T21:56:52.968Z,14.83
2018-09-16T21:58:55.930Z,14.90
2018-09-16T22:00:58.966Z,14.93
2018-09-16T22:03:02.303Z,14.85
2018-09-16T22:05:05.455Z,14.82
2018-09-16T22:07:09.634Z,14.76
2018-09-16T22:09:12.639Z,14.67
2018-09-16T22:11:15.612Z,14.64
2018-09-16T22:13:18.708Z,14.59
2018-09-16T22:15:21.854Z,14.48
2018-09-16T22:17:24.830Z,14.48
2018-09-16T22:19:27.828Z,14.52
2018-09-16T22:21:30.904Z,14.47
2018-09-16T22:23:33.875Z,14.50
2018-09-16T22:25:38.458Z,14.53
2018-09-16T22:27:41.888Z,14.55
2018-09-16T22:29:44.879Z,14.56
2018-09-16T22:31:47.847Z,14.55
2018-09-16T22:33:50.867Z,14.49
2018-09-16T22:35:53.845Z,14.52
2018-09-16T22:37:56.974Z,14.48
2018-09-16T22:40:00.110Z,14.43
2018-09-16T22:42:03.181Z,14.43
2018-09-16T22:44:06.228Z,14.37
2018-09-16T22:46:10.555Z,14.42
2018-09-16T22:48:13.641Z,14.42
2018-09-16T22:50:16.787Z,14.41
2018-09-16T22:52:19.815Z,14.38
2018-09-16T22:54:23.015Z,14.33
2018-09-16T22:56:26.087Z,14.31
2018-09-16T22:58:29.143Z,14.32
2018-09-16T23:00:32.285Z,14.30
2018-09-16T23:02:35.832Z,14.24
2018-09-16T23:04:40.607Z,14.21
2018-09-16T23:06:43.707Z,14.21
2018-09-16T23:08:52.382Z,14.22
2018-09-16T23:10:55.450Z,14.24
2018-09-16T23:12:58.510Z,14.18
2018-09-16T23:15:01.707Z,14.12
2018-09-16T23:17:04.895Z,14.10
2018-09-16T23:19:09.895Z,14.10
2018-09-16T23:21:12.996Z,14.07
2018-09-16T23:23:16.093Z,14.03
2018-09-16T23:25:19.123Z,14.01
2018-09-16T23:27:22.602Z,13.98
2018-09-16T23:29:25.637Z,13.90
2018-09-16T23:31:28.709Z,13.86
2018-09-16T23:33:31.811Z,13.84
2018-09-16T23:35:34.856Z,13.84
2018-09-16T23:37:39.501Z,13.84
2018-09-16T23:39:42.649Z,13.83
2018-09-16T23:41:45.728Z,13.82
2018-09-16T23:43:48.723Z,13.80
2018-09-16T23:45:51.832Z,13.77
2018-09-16T23:47:54.807Z,13.81
2018-09-16T23:49:57.777Z,13.79
2018-09-16T23:52:00.830Z,13.81
2018-09-16T23:54:03.942Z,13.80
2018-09-16T23:56:08.424Z,13.79
2018-09-16T23:58:11.505Z,13.75
